createdAt,value
2022-08-03T00:04:34.493Z,18.92
2022-08-03T00:09:38.215Z,18.93
2022-08-03T00:14:41.851Z,18.88
2022-08-03T00:19:46.960Z,18.73
2022-08-03T00:24:50.655Z,18.89
2022-08-03T00:29:59.499Z,18.57
2022-08-03T00:35:09.170Z,19.04
2022-08-03T00:40:16.724Z,19.02
2022-08-03T00:45:21.886Z,19.29
2022-08-03T00:50:28.701Z,19.80
2022-08-03T00:55:32.642Z,19.08
2022-08-03T01:00:38.957Z,19.40
2022-08-03T01:05:56.693Z,19.06
2022-08-03T01:11:08.204Z,18.58
2022-08-03T01:16:19.487Z,18.52
2022-08-03T01:21:29.214Z,18.45
2022-08-03T01:26:49.862Z,19.24
2022-08-03T01:32:53.348Z,17.89
2022-08-03T01:37:29.494Z,17.98
2022-08-03T01:42:34.992Z,19.20
2022-08-03T01:47:41.269Z,19.24
2022-08-03T01:52:46.214Z,19.39
2022-08-03T01:58:05.819Z,19.12
2022-08-03T02:03:14.954Z,19.40
2022-08-03T02:08:20.300Z,19.73
2022-08-03T02:13:25.782Z,19.57
2022-08-03T02:18:32.195Z,19.56
2022-08-03T02:23:36.046Z,20.12
2022-08-03T02:28:43.119Z,19.89
2022-08-03T02:33:51.839Z,19.11
2022-08-03T02:39:01.043Z,19.25
2022-08-03T02:44:09.618Z,19.77
2022-08-03T02:49:50.776Z,19.92
2022-08-03T02:54:43.170Z,20.21
2022-08-03T02:59:48.299Z,19.50
2022-08-03T03:05:50.640Z,19.39
2022-08-03T03:10:18.757Z,19.14
2022-08-03T03:15:23.217Z,19.02
2022-08-03T03:20:30.627Z,18.96
2022-08-03T03:25:35.471Z,18.57
2022-08-03T03:30:39.661Z,18.66
2022-08-03T03:35:46.958Z,18.41
2022-08-03T03:40:50.811Z,18.26
2022-08-03T03:45:55.876Z,19.01
2022-08-03T03:51:02.304Z,19.40
2022-08-03T03:56:06.112Z,20.01
2022-08-03T04:01:10.445Z,19.72
2022-08-03T04:06:34.255Z,19.58
2022-08-03T04:11:40.683Z,19.17
2022-08-03T04:16:47.373Z,20.18
2022-08-03T04:21:57.304Z,19.68
2022-08-03T04:27:03.820Z,20.07
2022-08-03T04:32:09.265Z,19.82
2022-08-03T04:37:15.864Z,19.37
2022-08-03T04:42:23.615Z,19.95
2022-08-03T04:47:28.156Z,20.45
2022-08-03T04:52:35.120Z,20.04
2022-08-03T04:57:39.706Z,19.86
2022-08-03T05:02:43.675Z,19.75
2022-08-03T05:07:48.876Z,20.37
2022-08-03T05:12:53.985Z,20.59
2022-08-03T05:17:57.744Z,20.79
2022-08-03T05:23:04.017Z,20.98
2022-08-03T05:28:07.742Z,20.97
2022-08-03T05:33:12.002Z,21.33
2022-08-03T05:38:23.993Z,21.05
2022-08-03T05:43:33.223Z,21.36
2022-08-03T05:48:40.300Z,21.19
2022-08-03T05:53:46.835Z,20.87
2022-08-03T05:58:51.796Z,21.05
2022-08-03T06:03:55.655Z,21.36
2022-08-03T06:09:00.848Z,22.00
2022-08-03T06:14:05.146Z,21.00
2022-08-03T06:19:09.144Z,20.95
2022-08-03T06:24:14.129Z,20.99
2022-08-03T06:29:19.452Z,21.08
2022-08-03T06:34:32.353Z,21.36
2022-08-03T06:39:40.395Z,21.76
2022-08-03T06:44:44.340Z,22.02
2022-08-03T06:50:17.091Z,21.61
2022-08-03T06:55:15.850Z,22.17
2022-08-03T07:00:20.157Z,22.08
2022-08-03T07:05:23.875Z,22.47
2022-08-03T07:10:29.169Z,22.89
2022-08-03T07:15:55.843Z,23.70
2022-08-03T07:20:56.950Z,24.14
2022-08-03T07:26:02.053Z,23.56
2022-08-03T07:31:08.045Z,23.57
2022-08-03T07:36:11.731Z,24.29
2022-08-03T07:41:17.031Z,25.39
2022-08-03T07:46:20.853Z,25.72
2022-08-03T07:51:24.699Z,25.22
2022-08-03T07:56:30.159Z,25.85
2022-08-03T08:01:36.776Z,24.71
2022-08-03T08:06:40.634Z,24.97
2022-08-03T08:11:45.626Z,24.89
2022-08-03T08:16:49.778Z,25.61
2022-08-03T08:22:02.637Z,25.12
2022-08-03T08:27:08.868Z,26.31
2022-08-03T08:32:14.990Z,26.67
2022-08-03T08:37:19.115Z,26.95
2022-08-03T08:42:24.265Z,27.57
2022-08-03T08:47:51.455Z,27.99
2022-08-03T08:52:56.214Z,28.76
2022-08-03T08:58:06.235Z,28.77
2022-08-03T09:03:10.333Z,29.17
2022-08-03T09:08:16.385Z,28.59
2022-08-03T09:13:22.130Z,27.95
2022-08-03T09:18:33.445Z,27.29
2022-08-03T09:24:01.408Z,27.15
2022-08-03T09:29:14.428Z,26.50
2022-08-03T09:34:19.655Z,27.10
2022-08-03T09:39:41.275Z,27.32
2022-08-03T09:44:49.015Z,26.72
2022-08-03T09:50:01.818Z,27.17
2022-08-03T09:56:01.606Z,26.98
2022-08-03T10:00:55.253Z,27.51
2022-08-03T10:06:00.226Z,28.45
2022-08-03T10:11:03.797Z,28.26
2022-08-03T10:16:21.762Z,27.18
2022-08-03T10:21:35.061Z,27.07
2022-08-03T10:26:49.873Z,28.80
2022-08-03T10:31:58.640Z,29.25
2022-08-03T10:37:09.527Z,29.52
2022-08-03T10:42:14.992Z,29.46
2022-08-03T10:47:20.493Z,28.84
2022-08-03T10:52:30.308Z,28.00
2022-08-03T10:57:47.430Z,28.42
2022-08-03T11:03:14.565Z,28.71
2022-08-03T11:08:27.994Z,29.20
2022-08-03T11:13:34.053Z,29.78
2022-08-03T11:18:57.366Z,30.86
2022-08-03T11:24:03.965Z,31.08
2022-08-03T11:29:31.902Z,32.21
2022-08-03T11:35:09.571Z,33.10
2022-08-03T11:40:34.541Z,34.43
2022-08-03T11:45:39.623Z,31.78
2022-08-03T11:50:46.377Z,32.36
2022-08-03T11:55:50.073Z,31.22
2022-08-03T12:00:54.787Z,31.13
2022-08-03T12:06:01.795Z,34.35
2022-08-03T12:11:09.319Z,36.80
2022-08-03T12:16:19.603Z,36.11
2022-08-03T12:21:25.206Z,36.67
2022-08-03T12:26:30.021Z,36.89
2022-08-03T12:31:33.722Z,32.47
2022-08-03T12:36:39.336Z,31.76
2022-08-03T12:41:43.335Z,29.78
2022-08-03T12:46:48.051Z,29.35
2022-08-03T12:52:05.475Z,28.97
2022-08-03T12:57:21.206Z,29.36
2022-08-03T13:02:28.789Z,30.73
2022-08-03T13:07:44.266Z,31.60
2022-08-03T13:12:54.287Z,32.51
2022-08-03T13:18:01.051Z,32.30
2022-08-03T13:23:06.123Z,33.03
2022-08-03T13:28:19.263Z,35.04
2022-08-03T13:33:23.264Z,34.22
2022-08-03T13:38:28.543Z,34.75
2022-08-03T13:43:32.499Z,35.48
2022-08-03T13:48:37.634Z,35.02
2022-08-03T13:53:43.250Z,34.73
2022-08-03T13:58:47.232Z,35.85
2022-08-03T14:03:54.183Z,34.55
2022-08-03T14:09:00.784Z,32.39
2022-08-03T14:14:04.436Z,30.84
2022-08-03T14:19:08.482Z,31.36
2022-08-03T14:24:14.101Z,29.88
2022-08-03T14:29:17.739Z,30.48
2022-08-03T14:34:21.539Z,30.62
2022-08-03T14:39:26.591Z,30.37
2022-08-03T14:44:30.324Z,29.99
2022-08-03T14:50:38.132Z,30.23
2022-08-03T14:55:00.019Z,29.61
2022-08-03T15:00:04.255Z,30.37
2022-08-03T15:05:09.178Z,30.93
2022-08-03T15:10:14.265Z,31.92
2022-08-03T15:15:17.995Z,32.75
2022-08-03T15:20:36.444Z,33.84
2022-08-03T15:26:28.283Z,34.13
2022-08-03T15:31:11.681Z,34.49
2022-08-03T15:36:22.543Z,34.31
2022-08-03T15:41:27.632Z,35.54
2022-08-03T15:46:31.317Z,34.33
2022-08-03T15:51:35.206Z,35.57
2022-08-03T15:56:41.817Z,34.37
2022-08-03T16:01:45.496Z,34.43
2022-08-03T16:06:49.670Z,34.53
2022-08-03T16:11:54.832Z,33.20
2022-08-03T16:16:58.489Z,31.37
2022-08-03T16:22:02.294Z,30.05
2022-08-03T16:27:36.650Z,29.87
2022-08-03T16:32:31.958Z,28.92
2022-08-03T16:37:38.795Z,28.71
2022-08-03T16:42:44.342Z,28.46
2022-08-03T16:48:01.288Z,27.77
2022-08-03T16:53:09.813Z,27.93
2022-08-03T16:58:19.561Z,27.72
2022-08-03T17:03:42.620Z,27.80
2022-08-03T17:09:09.238Z,27.42
2022-08-03T17:14:17.014Z,26.67
2022-08-03T17:19:23.007Z,26.72
2022-08-03T17:24:32.515Z,26.93
2022-08-03T17:29:44.899Z,26.58
2022-08-03T17:34:49.642Z,26.19
2022-08-03T17:39:59.238Z,26.32
2022-08-03T17:45:06.634Z,26.07
2022-08-03T17:50:24.875Z,25.90
2022-08-03T17:55:56.823Z,25.86
2022-08-03T18:01:59.150Z,25.82
2022-08-03T18:06:56.281Z,25.89
2022-08-03T18:12:05.740Z,25.49
2022-08-03T18:17:22.798Z,25.83
2022-08-03T18:22:28.020Z,25.36
2022-08-03T18:27:45.545Z,25.40
2022-08-03T18:33:01.041Z,25.25
2022-08-03T18:38:16.765Z,24.97
2022-08-03T18:43:21.115Z,23.16
2022-08-03T18:48:54.375Z,22.34
2022-08-03T18:54:07.762Z,22.03
2022-08-03T18:59:16.960Z,21.07
2022-08-03T19:04:41.221Z,20.81
2022-08-03T19:09:49.255Z,20.58
2022-08-03T19:14:56.350Z,20.56
2022-08-03T19:20:03.684Z,20.13
2022-08-03T19:30:39.872Z,21.16
2022-08-03T19:35:55.565Z,20.42
2022-08-03T19:41:04.039Z,19.72
2022-08-03T19:46:13.373Z,19.78
2022-08-03T19:51:26.994Z,19.34
2022-08-03T19:56:47.949Z,19.24
2022-08-03T20:01:51.657Z,19.17
2022-08-03T20:06:58.895Z,18.83
2022-08-03T20:12:03.268Z,18.83
2022-08-03T20:17:09.314Z,18.81
2022-08-03T20:22:14.903Z,19.16
2022-08-03T20:27:22.069Z,18.87
2022-08-03T20:32:34.589Z,18.76
2022-08-03T20:37:40.038Z,18.05
2022-08-03T20:42:45.692Z,18.01
2022-08-03T20:47:51.103Z,18.00
2022-08-03T20:52:56.265Z,18.05
2022-08-03T20:58:00.942Z,18.53
2022-08-03T21:03:08.983Z,19.54
2022-08-03T21:08:16.993Z,18.66
2022-08-03T21:13:10.549Z,20.08
2022-08-03T21:13:27.005Z,18.74
2022-08-03T21:18:35.684Z,19.08
2022-08-03T21:23:49.185Z,18.51
2022-08-03T21:28:56.884Z,17.96
2022-08-03T21:34:03.362Z,18.26
2022-08-03T21:39:10.332Z,18.67
2022-08-03T21:44:14.168Z,18.19
2022-08-03T21:50:07.141Z,17.96
2022-08-03T21:54:44.827Z,18.04
2022-08-03T21:59:55.191Z,18.21
2022-08-03T22:04:59.187Z,18.30
2022-08-03T22:10:08.069Z,18.11
2022-08-03T22:15:13.745Z,17.60
2022-08-03T22:20:17.392Z,17.81
2022-08-03T22:25:24.557Z,17.59
2022-08-03T22:30:28.590Z,18.10
2022-08-03T22:35:44.359Z,17.70
2022-08-03T22:40:53.892Z,18.02
2022-08-03T22:46:10.628Z,17.97
2022-08-03T22:51:17.184Z,17.47
2022-08-03T22:56:28.000Z,17.06
2022-08-03T23:01:36.362Z,17.43
2022-08-03T23:06:44.093Z,17.72
2022-08-03T23:11:49.527Z,17.99
2022-08-03T23:16:55.314Z,17.87
2022-08-03T23:22:03.341Z,17.01
2022-08-03T23:27:09.809Z,17.28
2022-08-03T23:32:14.686Z,16.99
2022-08-03T23:37:20.501Z,16.74
2022-08-03T23:42:26.556Z,16.62
2022-08-03T23:47:46.563Z,16.46
2022-08-03T23:52:58.953Z,17.27
2022-08-03T23:58:11.124Z,17.20
